Time;durP1;ratioP1;P1;durP2;ratioP2;P2;SDS_P1;SDS_P2;PMS_P1;PMS_P2;Temp;Humidity;BMP_temperature;BMP_pressure;BME280_temperature;BME280_humidity;BME280_pressure;Samples;Min_cycle;Max_cycle;Signal;HPM_P1;HPM_P2
2022/11/30 00:00:36;;;;;;;37.78;27.17;;;7.80;99.90;;;;;;5077876;28;20048;-81
2022/11/30 00:03:03;;;;;;;30.83;22.08;;;7.80;99.90;;;;;;5093151;27;20398;-82
2022/11/30 00:05:29;;;;;;;31.63;24.38;;;7.80;99.90;;;;;;5089673;28;20433;-82
2022/11/30 00:07:55;;;;;;;30.23;22.85;;;7.80;99.90;;;;;;5062919;28;20043;-81
2022/11/30 00:10:22;;;;;;;38.40;26.33;;;7.80;99.90;;;;;;5078773;28;20040;-82
2022/11/30 00:12:49;;;;;;;32.67;23.80;;;7.70;99.90;;;;;;5091197;28;20032;-82
2022/11/30 00:15:16;;;;;;;28.63;22.35;;;7.70;99.90;;;;;;5075555;28;20405;-80
2022/11/30 00:17:43;;;;;;;26.10;19.38;;;7.70;99.90;;;;;;5059627;27;20044;-82
2022/11/30 00:20:10;;;;;;;31.00;24.67;;;7.70;99.90;;;;;;5084648;28;20042;-82
2022/11/30 00:22:36;;;;;;;28.42;21.02;;;7.70;99.90;;;;;;5090430;28;20028;-82
2022/11/30 00:25:03;;;;;;;26.98;19.25;;;7.70;99.90;;;;;;5092384;27;20032;-81
2022/11/30 00:27:31;;;;;;;31.15;23.67;;;7.70;99.90;;;;;;5086343;28;20044;-81
2022/11/30 00:29:58;;;;;;;26.55;19.38;;;7.70;99.90;;;;;;5076945;28;20048;-81
2022/11/30 00:32:25;;;;;;;30.77;23.08;;;7.70;99.90;;;;;;5076252;28;20478;-80
2022/11/30 00:34:52;;;;;;;30.83;22.27;;;7.70;99.90;;;;;;5090021;28;20050;-80
2022/11/30 00:37:18;;;;;;;26.85;20.90;;;7.70;99.90;;;;;;5061991;28;20067;-82
2022/11/30 00:39:45;;;;;;;27.05;20.90;;;7.70;99.90;;;;;;5093726;27;20044;-82
2022/11/30 00:42:11;;;;;;;29.02;20.60;;;7.70;99.90;;;;;;5091632;28;20453;-82
2022/11/30 00:44:38;;;;;;;26.65;19.25;;;7.70;99.90;;;;;;5093278;28;20539;-82
2022/11/30 00:47:04;;;;;;;29.33;21.08;;;7.70;99.90;;;;;;5058267;28;20046;-80
2022/11/30 00:49:32;;;;;;;29.08;20.65;;;7.70;99.90;;;;;;5061423;28;20042;-81
2022/11/30 00:52:00;;;;;;;29.17;20.63;;;7.70;99.90;;;;;;5061056;28;20038;-79
2022/11/30 00:54:26;;;;;;;27.35;19.23;;;7.70;99.90;;;;;;5092095;28;20035;-81
2022/11/30 00:56:53;;;;;;;28.23;21.95;;;7.70;99.90;;;;;;5093373;28;20043;-79
2022/11/30 00:59:19;;;;;;;26.92;19.88;;;7.70;99.90;;;;;;5064574;28;20028;-82
2022/11/30 01:01:45;;;;;;;25.13;19.20;;;7.70;99.90;;;;;;5072248;28;20044;-82
2022/11/30 01:04:12;;;;;;;24.65;19.10;;;7.70;99.90;;;;;;5078513;28;20051;-82
2022/11/30 01:06:38;;;;;;;30.10;21.30;;;7.70;99.90;;;;;;5089903;28;20046;-81
2022/11/30 01:09:04;;;;;;;26.80;20.60;;;7.70;99.90;;;;;;5073552;28;20036;-81
2022/11/30 01:11:31;;;;;;;31.42;22.92;;;7.60;99.90;;;;;;5089248;28;20051;-82
2022/11/30 01:13:59;;;;;;;27.90;20.38;;;7.60;99.90;;;;;;5076059;28;20024;-82
2022/11/30 01:16:29;;;;;;;27.88;19.15;;;7.60;99.90;;;;;;5081033;28;20595;-82
2022/11/30 01:18:56;;;;;;;24.33;18.63;;;7.60;99.90;;;;;;5082956;28;20036;-82
2022/11/30 01:21:25;;;;;;;30.50;20.75;;;7.50;99.90;;;;;;5081652;28;20028;-82
2022/11/30 01:23:52;;;;;;;22.95;16.92;;;7.50;99.90;;;;;;5074658;28;20063;-81
2022/11/30 01:26:19;;;;;;;22.60;16.65;;;7.50;99.90;;;;;;5095910;28;20413;-80
2022/11/30 01:28:50;;;;;;;25.42;18.42;;;7.50;99.90;;;;;;5091280;28;21239;-78
2022/11/30 01:31:17;;;;;;;26.13;18.65;;;7.50;99.90;;;;;;5064777;28;20037;-82
2022/11/30 01:33:48;;;;;;;28.90;19.77;;;7.50;99.90;;;;;;5094560;28;20035;-82
2022/11/30 01:36:18;;;;;;;32.72;22.80;;;7.50;99.90;;;;;;5075100;28;20044;-81
2022/11/30 01:38:48;;;;;;;28.25;20.20;;;7.40;99.90;;;;;;5059299;28;20317;-81
2022/11/30 01:41:18;;;;;;;26.77;19.85;;;7.50;99.90;;;;;;5091171;28;20457;-79
2022/11/30 01:43:54;;;;;;;26.35;19.40;;;7.40;99.90;;;;;;5074845;28;20044;-81
2022/11/30 01:46:32;;;;;;;24.83;17.40;;;7.40;99.90;;;;;;5081600;28;20032;-80
2022/11/30 01:49:17;;;;;;;22.58;17.75;;;7.40;99.90;;;;;;5060214;27;20027;-81
2022/11/30 01:51:50;;;;;;;26.50;17.98;;;7.40;99.90;;;;;;5096425;28;20035;-82
2022/11/30 01:54:21;;;;;;;27.92;18.02;;;7.40;99.90;;;;;;5093286;28;20047;-82
2022/11/30 01:56:52;;;;;;;24.20;17.25;;;7.40;99.90;;;;;;5065443;28;20444;-80
2022/11/30 01:59:20;;;;;;;27.27;18.75;;;7.40;99.90;;;;;;5091409;28;20028;-79
2022/11/30 02:01:47;;;;;;;27.90;19.02;;;7.40;99.90;;;;;;5088000;28;20398;-81
2022/11/30 02:04:28;;;;;;;27.63;19.73;;;7.40;99.90;;;;;;5083476;28;20043;-81
2022/11/30 02:06:57;;;;;;;28.15;19.75;;;7.40;99.90;;;;;;5078467;28;20043;-78
2022/11/30 02:09:25;;;;;;;29.52;19.00;;;7.40;99.90;;;;;;5066154;28;20556;-82
2022/11/30 02:11:52;;;;;;;27.88;18.88;;;7.40;99.90;;;;;;5083882;28;20422;-81
2022/11/30 02:14:41;;;;;;;26.45;18.50;;;7.40;99.90;;;;;;5068735;28;20035;-82
2022/11/30 02:17:26;;;;;;;28.15;20.15;;;7.40;99.90;;;;;;5059171;28;20158;-79
2022/11/30 02:20:27;;;;;;;29.13;19.67;;;7.40;99.90;;;;;;5098515;28;20391;-81
2022/11/30 02:23:08;;;;;;;31.45;19.75;;;7.40;99.90;;;;;;5087755;28;20780;-82
2022/11/30 02:25:56;;;;;;;23.73;17.63;;;7.40;99.90;;;;;;5078847;28;20129;-81
2022/11/30 02:28:58;;;;;;;29.40;19.20;;;7.40;99.90;;;;;;5084121;28;20407;-82
2022/11/30 02:31:30;;;;;;;26.58;18.42;;;7.40;99.90;;;;;;5057819;28;20032;-82
2022/11/30 02:33:58;;;;;;;27.43;18.73;;;7.40;99.90;;;;;;5094401;28;20043;-81
2022/11/30 02:36:25;;;;;;;28.20;19.85;;;7.40;99.90;;;;;;5079622;28;20039;-82
2022/11/30 02:38:52;;;;;;;28.83;19.48;;;7.40;99.90;;;;;;5089153;27;20035;-82
2022/11/30 02:41:18;;;;;;;32.78;21.95;;;7.30;99.90;;;;;;5098367;27;20032;-82
2022/11/30 02:43:44;;;;;;;26.42;18.98;;;7.40;99.90;;;;;;5075362;28;20047;-82
2022/11/30 02:46:36;;;;;;;33.45;21.63;;;7.40;99.90;;;;;;5095682;27;20040;-82
2022/11/30 02:49:16;;;;;;;25.08;17.50;;;7.40;99.90;;;;;;5063452;28;20517;-80
2022/11/30 02:51:44;;;;;;;31.67;20.75;;;7.40;99.90;;;;;;5083466;28;20038;-82
2022/11/30 02:54:11;;;;;;;32.35;21.13;;;7.40;99.90;;;;;;5079989;28;20032;-80
2022/11/30 02:56:37;;;;;;;34.20;22.52;;;7.30;99.90;;;;;;5092954;28;20025;-82
2022/11/30 02:59:04;;;;;;;30.25;20.10;;;7.30;99.90;;;;;;5074377;28;20293;-82
2022/11/30 03:01:30;;;;;;;29.63;19.95;;;7.30;99.90;;;;;;5084320;28;20517;-82
2022/11/30 03:03:57;;;;;;;31.65;20.98;;;7.30;99.90;;;;;;5075831;28;20036;-81
2022/11/30 03:06:23;;;;;;;31.55;21.67;;;7.30;99.90;;;;;;5094001;28;20024;-83
2022/11/30 03:08:52;;;;;;;34.78;22.27;;;7.30;99.90;;;;;;5073955;28;20483;-81
2022/11/30 03:11:18;;;;;;;40.08;25.73;;;7.20;99.90;;;;;;5090290;28;20024;-82
2022/11/30 03:13:44;;;;;;;34.10;23.05;;;7.20;99.90;;;;;;5090764;28;20035;-82
2022/11/30 03:16:12;;;;;;;30.55;21.02;;;7.20;99.90;;;;;;5092251;28;20043;-80
2022/11/30 03:18:39;;;;;;;25.98;18.30;;;7.20;99.90;;;;;;5091225;28;20028;-81
2022/11/30 03:21:10;;;;;;;28.02;18.17;;;7.10;99.90;;;;;;5094445;28;20044;-82
2022/11/30 03:23:37;;;;;;;25.13;17.83;;;7.10;99.90;;;;;;5100062;28;20109;-82
2022/11/30 03:26:05;;;;;;;27.23;19.35;;;7.10;99.90;;;;;;5078201;28;20043;-83
2022/11/30 03:28:31;;;;;;;27.50;19.17;;;7.10;99.90;;;;;;5077154;28;20044;-82
2022/11/30 03:30:58;;;;;;;29.92;19.88;;;7.10;99.90;;;;;;5092661;28;20038;-80
2022/11/30 03:33:24;;;;;;;30.10;19.02;;;7.00;99.90;;;;;;5092870;28;20552;-82
2022/11/30 03:36:01;;;;;;;28.10;20.05;;;6.90;99.90;;;;;;5091466;28;20488;-80
2022/11/30 03:38:28;;;;;;;29.73;20.08;;;6.90;99.90;;;;;;5074858;28;20032;-81
2022/11/30 03:41:13;;;;;;;27.77;18.55;;;6.80;99.90;;;;;;5091348;28;20039;-82
2022/11/30 03:43:39;;;;;;;29.20;19.40;;;6.70;99.90;;;;;;5091018;28;20028;-81
2022/11/30 03:46:06;;;;;;;27.75;19.25;;;6.60;99.90;;;;;;5096149;27;20047;-83
2022/11/30 03:48:34;;;;;;;26.15;18.17;;;6.50;99.90;;;;;;5073868;28;20033;-83
2022/11/30 03:51:01;;;;;;;26.23;17.73;;;6.40;99.90;;;;;;5106144;27;20386;-82
2022/11/30 03:53:28;;;;;;;24.20;17.60;;;6.30;99.90;;;;;;5076816;28;20032;-81
2022/11/30 03:55:59;;;;;;;26.52;17.90;;;6.20;99.90;;;;;;5078859;28;20371;-82
2022/11/30 03:58:27;;;;;;;20.90;13.85;;;6.20;99.90;;;;;;5075837;28;20042;-83
2022/11/30 04:01:08;;;;;;;22.67;15.93;;;6.10;99.90;;;;;;5078273;28;20044;-82
2022/11/30 04:03:34;;;;;;;23.85;15.02;;;6.00;99.90;;;;;;5083539;28;20039;-80
2022/11/30 04:06:02;;;;;;;22.38;15.32;;;5.90;99.90;;;;;;5087828;28;20391;-81
2022/11/30 04:08:29;;;;;;;26.90;17.35;;;5.90;99.90;;;;;;5089690;28;20035;-80
2022/11/30 04:10:57;;;;;;;23.10;15.13;;;5.80;99.90;;;;;;5084971;28;20063;-80
2022/11/30 04:13:24;;;;;;;25.50;16.92;;;5.80;99.90;;;;;;5069000;28;20036;-82
2022/11/30 04:15:51;;;;;;;23.25;15.85;;;5.70;99.90;;;;;;5082167;28;20532;-80
2022/11/30 04:18:19;;;;;;;23.55;14.93;;;5.70;99.90;;;;;;5091205;27;20051;-80
2022/11/30 04:20:48;;;;;;;20.40;14.57;;;5.70;99.90;;;;;;5089418;28;20031;-81
2022/11/30 04:23:15;;;;;;;19.05;12.43;;;5.60;99.90;;;;;;5076573;28;20050;-81
2022/11/30 04:25:41;;;;;;;25.60;16.48;;;5.60;99.90;;;;;;5094251;28;20035;-81
2022/11/30 04:28:08;;;;;;;24.83;14.90;;;5.60;99.90;;;;;;5093130;28;20028;-82
2022/11/30 04:30:36;;;;;;;22.10;14.20;;;5.50;99.90;;;;;;5091505;28;20024;-82
2022/11/30 04:33:04;;;;;;;21.95;14.02;;;5.50;99.90;;;;;;5073809;28;20055;-81
2022/11/30 04:35:31;;;;;;;22.58;14.68;;;5.40;99.90;;;;;;5075894;28;20368;-81
2022/11/30 04:37:58;;;;;;;20.05;13.38;;;5.40;99.90;;;;;;5075183;28;20043;-81
2022/11/30 04:40:25;;;;;;;19.20;12.93;;;5.30;99.90;;;;;;5080446;28;20059;-80
2022/11/30 04:42:51;;;;;;;26.90;18.02;;;5.40;99.90;;;;;;5089144;28;20043;-82
2022/11/30 04:45:17;;;;;;;23.83;15.65;;;5.30;99.90;;;;;;5074292;28;20044;-79
2022/11/30 04:47:44;;;;;;;26.13;16.63;;;5.30;99.90;;;;;;5095061;28;20023;-81
2022/11/30 04:50:10;;;;;;;22.40;15.10;;;5.30;99.90;;;;;;5089601;28;20043;-80
2022/11/30 04:52:36;;;;;;;27.30;17.30;;;5.20;99.90;;;;;;5068988;28;20367;-81
2022/11/30 04:55:03;;;;;;;29.95;18.73;;;5.20;99.90;;;;;;5060900;28;20036;-82
2022/11/30 04:57:30;;;;;;;30.23;19.38;;;5.20;99.90;;;;;;5088313;28;20044;-82
2022/11/30 04:59:56;;;;;;;28.15;17.42;;;5.20;99.90;;;;;;5060961;28;20049;-80
2022/11/30 05:02:23;;;;;;;30.73;19.35;;;5.20;99.90;;;;;;5083561;28;20047;-80
2022/11/30 05:04:49;;;;;;;29.48;19.50;;;5.20;99.90;;;;;;5063703;28;20031;-81
2022/11/30 05:07:15;;;;;;;27.25;17.65;;;5.10;99.90;;;;;;5066106;28;20058;-81
2022/11/30 05:09:42;;;;;;;24.75;15.93;;;5.10;99.90;;;;;;5074824;28;20028;-81
2022/11/30 05:12:08;;;;;;;28.95;18.20;;;5.10;99.90;;;;;;5091018;28;20045;-81
2022/11/30 05:14:34;;;;;;;24.48;15.55;;;5.10;99.90;;;;;;5075046;27;20028;-81
2022/11/30 05:17:01;;;;;;;27.38;16.17;;;5.10;99.90;;;;;;5094333;28;20043;-79
2022/11/30 05:19:27;;;;;;;24.42;15.68;;;5.00;99.90;;;;;;5100864;27;20023;-82
2022/11/30 05:21:53;;;;;;;20.70;14.07;;;5.00;99.90;;;;;;5093941;27;20036;-81
2022/11/30 05:24:19;;;;;;;23.23;15.38;;;5.00;99.90;;;;;;5066859;27;20518;-81
2022/11/30 05:26:46;;;;;;;26.83;17.27;;;5.00;99.90;;;;;;5111921;27;20058;-81
2022/11/30 05:29:12;;;;;;;22.63;14.82;;;4.90;99.90;;;;;;5113854;27;20027;-82
2022/11/30 05:31:39;;;;;;;23.38;15.05;;;4.90;99.90;;;;;;5083258;27;20027;-81
2022/11/30 05:34:06;;;;;;;20.70;13.50;;;4.90;99.90;;;;;;5104947;27;20046;-82
2022/11/30 05:36:32;;;;;;;22.83;15.77;;;4.80;99.90;;;;;;5059408;27;20069;-78
2022/11/30 05:38:58;;;;;;;21.70;13.65;;;4.80;99.90;;;;;;5109390;27;20594;-81
2022/11/30 05:41:25;;;;;;;37.85;22.60;;;4.80;99.90;;;;;;5096809;27;20494;-80
2022/11/30 05:43:51;;;;;;;28.08;18.58;;;4.70;99.90;;;;;;5097925;27;20470;-82
2022/11/30 05:46:17;;;;;;;22.55;15.80;;;4.70;99.90;;;;;;5076839;27;20035;-78
2022/11/30 05:48:44;;;;;;;24.20;15.10;;;4.70;99.90;;;;;;5092451;27;20396;-81
2022/11/30 05:51:16;;;;;;;23.40;13.82;;;4.60;99.90;;;;;;5101330;27;20038;-79
2022/11/30 05:53:46;;;;;;;24.67;16.67;;;4.60;99.90;;;;;;5066472;27;20024;-82
2022/11/30 05:56:16;;;;;;;20.88;14.32;;;4.60;99.90;;;;;;5068513;27;20063;-81
2022/11/30 05:58:43;;;;;;;23.25;14.95;;;4.60;99.90;;;;;;5082667;27;20862;-81
2022/11/30 06:01:19;;;;;;;21.73;13.00;;;4.50;99.90;;;;;;5105795;27;20759;-82
2022/11/30 06:03:46;;;;;;;26.50;14.35;;;4.50;99.90;;;;;;5082210;28;20027;-80
2022/11/30 06:06:12;;;;;;;19.35;13.40;;;4.50;99.90;;;;;;5100798;27;20873;-79
2022/11/30 06:08:38;;;;;;;31.38;15.55;;;4.50;99.90;;;;;;5075997;27;20039;-82
2022/11/30 06:11:05;;;;;;;98.97;20.50;;;4.50;99.90;;;;;;5084179;27;20058;-80
2022/11/30 06:13:31;;;;;;;40.95;15.43;;;4.50;99.90;;;;;;5104051;27;20489;-81
2022/11/30 06:15:59;;;;;;;82.13;18.00;;;4.50;99.90;;;;;;5097487;28;20039;-79
2022/11/30 06:18:25;;;;;;;31.20;13.65;;;4.50;99.90;;;;;;5097351;27;20528;-81
2022/11/30 06:20:51;;;;;;;30.38;14.07;;;4.50;99.90;;;;;;5090873;27;20513;-80
2022/11/30 06:23:18;;;;;;;45.22;13.43;;;4.50;99.90;;;;;;5096802;28;20034;-82
2022/11/30 06:25:44;;;;;;;36.92;15.35;;;4.50;99.90;;;;;;5100758;27;20023;-80
2022/11/30 06:28:11;;;;;;;33.13;12.98;;;4.50;99.90;;;;;;5098199;27;20062;-80
2022/11/30 06:30:37;;;;;;;90.47;17.65;;;4.50;99.90;;;;;;5078764;27;20032;-80
2022/11/30 06:33:03;;;;;;;37.13;12.60;;;4.50;99.90;;;;;;5092665;28;20027;-81
2022/11/30 06:35:30;;;;;;;44.47;13.30;;;4.50;99.90;;;;;;5080567;27;20051;-81
2022/11/30 06:37:56;;;;;;;36.17;12.35;;;4.50;99.90;;;;;;5095470;27;20020;-81
2022/11/30 06:40:22;;;;;;;21.67;11.02;;;4.50;99.90;;;;;;5084084;27;20031;-80
2022/11/30 06:42:49;;;;;;;26.17;11.95;;;4.50;99.90;;;;;;5083322;27;20422;-80
2022/11/30 06:45:15;;;;;;;49.67;12.48;;;4.50;99.90;;;;;;5096989;27;20044;-82
2022/11/30 06:47:41;;;;;;;42.47;10.48;;;4.50;99.90;;;;;;5093681;27;20031;-81
2022/11/30 06:50:08;;;;;;;54.58;12.02;;;4.50;99.90;;;;;;5075493;27;20437;-82
2022/11/30 06:52:34;;;;;;;35.00;11.30;;;4.50;99.90;;;;;;5092325;27;20032;-80
2022/11/30 06:55:01;;;;;;;32.05;11.05;;;4.60;99.90;;;;;;5093588;27;20030;-78
2022/11/30 06:57:28;;;;;;;37.75;12.88;;;4.60;99.90;;;;;;5090688;27;20046;-80
2022/11/30 06:59:55;;;;;;;48.20;10.98;;;4.60;99.90;;;;;;5067490;27;20331;-80
2022/11/30 07:02:22;;;;;;;24.80;10.52;;;4.60;99.90;;;;;;5079020;27;20065;-77
2022/11/30 07:04:48;;;;;;;21.00;10.77;;;4.60;99.90;;;;;;5109041;27;20394;-80
2022/11/30 07:07:15;;;;;;;18.45;10.25;;;4.60;99.90;;;;;;5068614;27;20669;-79
2022/11/30 07:09:41;;;;;;;20.45;11.60;;;4.60;99.90;;;;;;5075418;27;20398;-78
2022/11/30 07:12:08;;;;;;;40.30;16.60;;;4.50;99.90;;;;;;5084402;27;20044;-78
2022/11/30 07:14:34;;;;;;;22.10;12.70;;;4.50;99.90;;;;;;5099506;27;20036;-78
2022/11/30 07:17:03;;;;;;;23.23;14.25;;;4.50;99.90;;;;;;5093111;27;20028;-77
2022/11/30 07:19:31;;;;;;;53.08;18.73;;;4.50;99.90;;;;;;5098913;27;20042;-78
2022/11/30 07:21:57;;;;;;;37.58;15.25;;;4.40;99.90;;;;;;5114109;27;20038;-77
2022/11/30 07:27:08;;;;;;;28.45;10.90;;;4.30;99.90;;;;;;5089428;27;20044;-81
2022/11/30 07:29:35;;;;;;;16.15;10.65;;;4.30;99.90;;;;;;5077390;27;20420;-80
2022/11/30 07:32:01;;;;;;;15.45;9.98;;;4.30;99.90;;;;;;5085119;27;20027;-80
2022/11/30 07:34:27;;;;;;;13.82;10.25;;;4.20;99.90;;;;;;5080497;27;20031;-82
2022/11/30 07:36:54;;;;;;;15.88;11.43;;;4.20;99.90;;;;;;5078119;27;20047;-78
2022/11/30 07:39:20;;;;;;;16.02;10.68;;;4.20;99.90;;;;;;5096356;27;20024;-80
2022/11/30 07:41:46;;;;;;;17.58;12.52;;;4.20;99.90;;;;;;5078277;27;20383;-80
2022/11/30 07:44:12;;;;;;;14.80;11.02;;;4.20;99.90;;;;;;5096257;27;20035;-80
2022/11/30 07:46:39;;;;;;;18.15;13.10;;;4.20;99.90;;;;;;5078494;27;20799;-79
2022/11/30 07:49:07;;;;;;;17.17;12.57;;;4.20;99.90;;;;;;5076706;28;20047;-80
2022/11/30 07:51:34;;;;;;;18.60;13.10;;;4.30;99.90;;;;;;5092997;27;20444;-80
2022/11/30 07:54:00;;;;;;;16.80;11.93;;;4.30;99.90;;;;;;5089066;27;20035;-80
2022/11/30 07:56:28;;;;;;;20.42;14.20;;;4.40;99.90;;;;;;5090477;27;20040;-80
2022/11/30 07:58:56;;;;;;;21.65;13.43;;;4.50;99.90;;;;;;5077860;28;20039;-81
2022/11/30 08:01:25;;;;;;;23.17;15.70;;;4.50;99.90;;;;;;5091004;28;20051;-81
2022/11/30 08:03:52;;;;;;;25.17;15.90;;;4.70;99.90;;;;;;5097221;27;20027;-81
2022/11/30 08:06:27;;;;;;;24.15;16.25;;;4.70;99.90;;;;;;5092577;27;20510;-81
2022/11/30 08:08:56;;;;;;;23.05;15.57;;;4.80;99.90;;;;;;5063606;28;20517;-81
2022/11/30 08:11:28;;;;;;;22.95;16.15;;;4.90;99.90;;;;;;5082428;27;20042;-80
2022/11/30 08:13:54;;;;;;;25.15;15.55;;;4.90;99.90;;;;;;5115730;27;20028;-80
2022/11/30 08:16:23;;;;;;;25.45;16.90;;;5.00;99.90;;;;;;5084052;27;20051;-81
2022/11/30 08:18:50;;;;;;;25.10;15.90;;;5.10;99.90;;;;;;5078922;27;20031;-81
2022/11/30 08:21:19;;;;;;;26.52;17.80;;;5.10;99.90;;;;;;5088287;28;20035;-80
2022/11/30 08:23:55;;;;;;;29.77;20.38;;;5.20;99.90;;;;;;5080135;27;20402;-80
2022/11/30 08:26:30;;;;;;;34.72;21.10;;;5.30;99.90;;;;;;5064996;28;20400;-80
2022/11/30 08:28:58;;;;;;;41.67;24.83;;;5.40;99.90;;;;;;5089763;27;20036;-79
2022/11/30 08:31:27;;;;;;;49.17;27.90;;;5.40;99.90;;;;;;5097883;27;20031;-80
2022/11/30 08:33:59;;;;;;;39.55;22.95;;;5.50;99.90;;;;;;5072960;27;20027;-80
2022/11/30 08:36:27;;;;;;;44.70;23.55;;;5.60;99.90;;;;;;5069491;27;20541;-79
2022/11/30 08:38:55;;;;;;;43.63;22.45;;;5.60;99.90;;;;;;5086963;27;20398;-78
2022/11/30 08:41:22;;;;;;;45.97;25.02;;;5.70;99.90;;;;;;5092245;28;20035;-77
2022/11/30 08:43:49;;;;;;;43.67;23.65;;;5.80;99.90;;;;;;5101156;28;20034;-79
2022/11/30 08:46:18;;;;;;;47.53;26.05;;;5.80;99.90;;;;;;5112088;27;20039;-78
2022/11/30 08:48:45;;;;;;;53.85;29.80;;;5.90;99.90;;;;;;5107855;27;20038;-77
2022/11/30 08:51:14;;;;;;;52.20;27.95;;;5.90;99.90;;;;;;5079114;28;20035;-80
2022/11/30 08:53:40;;;;;;;54.10;29.48;;;6.00;99.90;;;;;;5063815;28;20035;-78
2022/11/30 08:56:10;;;;;;;54.22;28.48;;;6.00;99.90;;;;;;5082127;28;20039;-79
2022/11/30 08:58:38;;;;;;;55.03;29.33;;;6.10;99.90;;;;;;5090174;27;20046;-76
2022/11/30 09:01:05;;;;;;;52.60;27.80;;;6.20;99.90;;;;;;5076331;28;20047;-78
2022/11/30 09:03:32;;;;;;;41.58;22.58;;;6.20;99.90;;;;;;5104273;28;20506;-79
2022/11/30 09:06:06;;;;;;;52.10;28.40;;;6.20;99.90;;;;;;5094549;28;20047;-78
2022/11/30 09:08:33;;;;;;;70.63;34.25;;;6.30;99.90;;;;;;5087168;28;20086;-77
2022/11/30 09:11:13;;;;;;;60.80;32.42;;;6.30;99.90;;;;;;5078695;28;20541;-82
2022/11/30 09:13:41;;;;;;;77.00;41.05;;;6.40;99.90;;;;;;5079652;28;20389;-82
2022/11/30 09:16:08;;;;;;;82.13;45.75;;;6.40;99.90;;;;;;5077097;27;20043;-80
2022/11/30 09:18:35;;;;;;;65.22;34.83;;;6.40;99.90;;;;;;5078688;28;20042;-78
2022/11/30 09:21:04;;;;;;;69.95;39.33;;;6.50;99.90;;;;;;5082859;27;20466;-77
2022/11/30 09:23:31;;;;;;;65.47;36.38;;;6.50;99.90;;;;;;5081997;28;20039;-79
2022/11/30 09:25:59;;;;;;;63.10;32.55;;;6.60;99.90;;;;;;5088650;28;20035;-81
2022/11/30 09:28:26;;;;;;;65.07;34.50;;;6.70;99.90;;;;;;5092483;28;20115;-78
2022/11/30 09:30:52;;;;;;;63.67;34.40;;;6.70;99.90;;;;;;5096925;28;20494;-82
2022/11/30 09:33:20;;;;;;;59.45;30.58;;;6.80;99.90;;;;;;5093849;28;20539;-80
2022/11/30 09:35:57;;;;;;;60.20;32.85;;;6.80;99.90;;;;;;5089884;28;20800;-78
2022/11/30 09:38:24;;;;;;;49.28;28.38;;;6.90;99.90;;;;;;5071005;28;20046;-81
2022/11/30 09:41:06;;;;;;;55.67;29.73;;;6.90;99.90;;;;;;5095967;27;20038;-79
2022/11/30 09:43:49;;;;;;;53.05;30.45;;;7.00;99.90;;;;;;5091116;28;20066;-80
2022/11/30 09:46:19;;;;;;;56.17;31.00;;;7.00;99.90;;;;;;5079793;28;20042;-79
2022/11/30 09:48:55;;;;;;;62.10;34.22;;;7.00;99.90;;;;;;5076075;28;20047;-80
2022/11/30 09:51:30;;;;;;;60.17;30.38;;;7.10;99.90;;;;;;5077901;28;20039;-80
2022/11/30 09:54:06;;;;;;;45.88;26.55;;;7.20;99.90;;;;;;5081574;28;20499;-80
2022/11/30 09:56:36;;;;;;;63.22;33.83;;;7.20;99.90;;;;;;5077535;28;20042;-81
2022/11/30 09:59:13;;;;;;;55.72;30.13;;;7.20;99.90;;;;;;5067103;28;20055;-79
2022/11/30 10:01:39;;;;;;;51.97;31.42;;;7.40;99.90;;;;;;5094796;28;20792;-80
2022/11/30 10:04:20;;;;;;;47.80;29.88;;;7.50;99.90;;;;;;5062455;27;20047;-80
2022/11/30 10:06:49;;;;;;;37.10;25.92;;;7.80;99.90;;;;;;5093964;27;20039;-78
2022/11/30 10:09:37;;;;;;;35.20;24.40;;;8.10;99.90;;;;;;5093479;27;20039;-81
2022/11/30 10:12:11;;;;;;;29.75;20.95;;;8.40;99.90;;;;;;5084881;28;20486;-81
2022/11/30 10:14:45;;;;;;;29.17;20.27;;;8.60;99.90;;;;;;5099628;27;20038;-80
2022/11/30 10:17:39;;;;;;;27.70;19.90;;;8.70;99.90;;;;;;5109078;27;20035;-80
2022/11/30 10:20:15;;;;;;;25.27;18.17;;;8.80;99.90;;;;;;5080878;27;20506;-80
2022/11/30 10:23:00;;;;;;;28.52;20.65;;;8.80;99.90;;;;;;5084560;27;20114;-81
2022/11/30 10:25:52;;;;;;;28.98;21.20;;;8.60;99.90;;;;;;5099268;27;20035;-81
2022/11/30 10:28:33;;;;;;;25.52;18.33;;;8.50;99.90;;;;;;5094327;28;20040;-80
2022/11/30 10:31:02;;;;;;;25.50;18.13;;;8.40;99.90;;;;;;5095688;27;20043;-81
2022/11/30 10:33:37;;;;;;;32.65;22.58;;;8.30;99.90;;;;;;5093828;27;20034;-80
2022/11/30 10:36:14;;;;;;;32.80;23.63;;;8.20;99.90;;;;;;5094870;27;20035;-80
2022/11/30 10:38:45;;;;;;;28.17;20.13;;;8.00;99.90;;;;;;5110658;27;20031;-79
2022/11/30 10:41:27;;;;;;;28.55;18.98;;;7.90;99.90;;;;;;5098569;28;20027;-79
2022/11/30 10:44:03;;;;;;;27.63;18.17;;;7.80;99.90;;;;;;5091693;27;20031;-79
2022/11/30 10:46:35;;;;;;;24.77;16.80;;;7.80;99.90;;;;;;5095441;27;20019;-80
2022/11/30 10:49:15;;;;;;;36.92;23.42;;;7.70;99.90;;;;;;5077145;27;20398;-80
2022/11/30 10:51:46;;;;;;;27.08;18.67;;;7.70;99.90;;;;;;5095030;27;20032;-80
2022/11/30 10:54:18;;;;;;;39.25;26.75;;;7.60;99.90;;;;;;5068310;27;20458;-80
2022/11/30 10:56:45;;;;;;;;;;;7.70;99.90;;;;;;5069297;27;20031;-79
2022/11/30 10:59:26;;;;;;;34.80;22.27;;;7.60;99.90;;;;;;5096772;27;19908;-79
2022/11/30 11:01:53;;;;;;;38.58;25.85;;;7.60;99.90;;;;;;5079321;27;20054;-79
2022/11/30 11:04:23;;;;;;;38.15;26.52;;;7.60;99.90;;;;;;5083296;28;20410;-78
2022/11/30 11:06:58;;;;;;;38.42;24.73;;;7.50;99.90;;;;;;5101280;27;20023;-79
2022/11/30 11:09:33;;;;;;;35.75;23.80;;;7.60;99.90;;;;;;5080492;27;20046;-78
2022/11/30 11:12:05;;;;;;;34.85;23.25;;;7.70;99.90;;;;;;5087528;27;20051;-78
2022/11/30 11:14:32;;;;;;;35.42;22.38;;;7.80;99.90;;;;;;5068601;27;20035;-79
2022/11/30 11:17:25;;;;;;;30.23;20.83;;;7.80;99.90;;;;;;5113733;27;20034;-78
2022/11/30 11:19:51;;;;;;;33.73;22.10;;;7.80;99.90;;;;;;5087019;27;20041;-79
2022/11/30 11:22:26;;;;;;;31.88;22.20;;;7.80;99.90;;;;;;5059032;27;20356;-80
2022/11/30 11:25:09;;;;;;;33.08;21.55;;;7.80;99.90;;;;;;5066530;27;20028;-79
2022/11/30 11:27:36;;;;;;;35.05;24.23;;;7.80;99.90;;;;;;5091578;28;20537;-80
2022/11/30 11:30:36;;;;;;;32.78;21.23;;;7.90;99.90;;;;;;5081125;28;20043;-79
2022/11/30 11:33:10;;;;;;;30.15;20.92;;;7.90;99.90;;;;;;5084259;28;20044;-80
2022/11/30 11:35:46;;;;;;;30.00;20.75;;;8.00;99.90;;;;;;5083937;27;20430;-80
2022/11/30 11:38:51;;;;;;;33.08;20.90;;;8.10;99.90;;;;;;5063449;27;20562;-79
2022/11/30 11:41:36;;;;;;;32.63;21.70;;;8.10;99.90;;;;;;5007255;28;20042;-80
2022/11/30 11:44:08;;;;;;;30.25;20.48;;;8.10;99.90;;;;;;5022800;28;20037;-77
2022/11/30 11:46:50;;;;;;;36.92;25.58;;;8.30;99.90;;;;;;5074292;27;20386;-82
2022/11/30 11:49:30;;;;;;;39.15;23.17;;;8.40;99.90;;;;;;5091969;27;20733;-77
2022/11/30 11:52:05;;;;;;;39.70;25.65;;;8.50;99.90;;;;;;5095892;27;20035;-80
2022/11/30 11:54:35;;;;;;;36.72;24.50;;;8.50;99.90;;;;;;5066637;28;20039;-76
2022/11/30 11:57:02;;;;;;;36.45;22.92;;;8.60;99.90;;;;;;5081829;27;20035;-76
2022/11/30 12:00:01;;;;;;;40.90;27.35;;;8.70;99.90;;;;;;5079259;28;20043;-78
2022/11/30 12:02:42;;;;;;;33.10;22.27;;;8.70;99.90;;;;;;5083094;28;20060;-79
2022/11/30 12:05:26;;;;;;;29.40;20.35;;;8.70;99.90;;;;;;5095292;27;20050;-77
2022/11/30 12:08:21;;;;;;;33.70;22.25;;;8.80;99.90;;;;;;5074875;28;20032;-79
2022/11/30 12:11:06;;;;;;;31.65;20.92;;;8.80;99.90;;;;;;5098026;27;20479;-78
2022/11/30 12:13:38;;;;;;;28.83;20.83;;;8.70;99.90;;;;;;5092998;28;20035;-78
2022/11/30 12:16:36;;;;;;;31.02;21.13;;;8.70;99.90;;;;;;5085140;28;20035;-78
2022/11/30 12:19:10;;;;;;;33.63;23.05;;;8.70;99.90;;;;;;5092323;28;20027;-77
2022/11/30 12:21:58;;;;;;;30.63;21.50;;;8.60;99.90;;;;;;5083950;28;20332;-78
2022/11/30 12:24:45;;;;;;;34.72;22.67;;;8.60;99.90;;;;;;5064874;28;20038;-78
2022/11/30 12:27:19;;;;;;;35.08;24.67;;;8.60;99.90;;;;;;5090388;28;20032;-77
2022/11/30 12:29:51;;;;;;;30.33;21.33;;;8.60;99.90;;;;;;5070765;28;20044;-78
2022/11/30 12:32:39;;;;;;;33.60;21.40;;;8.60;99.90;;;;;;5065119;28;20047;-80
2022/11/30 12:35:32;;;;;;;36.75;24.80;;;8.60;99.90;;;;;;5062872;28;20040;-78
2022/11/30 12:38:21;;;;;;;33.20;22.38;;;8.60;99.90;;;;;;5072145;28;20028;-79
2022/11/30 12:41:16;;;;;;;34.08;21.80;;;8.60;99.90;;;;;;5091767;28;20032;-78
2022/11/30 12:44:17;;;;;;;27.73;18.67;;;8.60;99.90;;;;;;5010520;28;20033;-79
2022/11/30 12:47:08;;;;;;;30.90;20.23;;;8.50;99.90;;;;;;5067046;28;20125;-79
2022/11/30 12:50:03;;;;;;;27.40;18.02;;;8.50;99.90;;;;;;5092428;28;20050;-76
2022/11/30 12:52:53;;;;;;;29.52;19.45;;;8.50;99.90;;;;;;5095594;28;20028;-79
2022/11/30 12:55:23;;;;;;;28.52;19.90;;;8.40;99.90;;;;;;5094390;28;20105;-80
2022/11/30 12:58:26;;;;;;;25.83;18.77;;;8.30;99.90;;;;;;5056784;28;20051;-78
2022/11/30 13:01:02;;;;;;;28.90;18.85;;;8.40;99.90;;;;;;5098334;27;20058;-79